Time;durP1;ratioP1;P1;durP2;ratioP2;P2;SDS_P1;SDS_P2;PMS_P1;PMS_P2;Temp;Humidity;BMP_temperature;BMP_pressure;BME280_temperature;BME280_humidity;BME280_pressure;Samples;Min_cycle;Max_cycle;Signal;HPM_P1;HPM_P2
2023/06/13 00:00:05;;;;;;;19.88;14.38;;;;;;;21.17;97.06;100549.81;5080123;28;20056;-63
2023/06/13 00:02:33;;;;;;;20.42;14.52;;;;;;;21.11;94.61;100551.34;5053568;28;20056;-63
2023/06/13 00:05:03;;;;;;;17.20;13.93;;;;;;;20.95;96.40;100550.81;5064890;28;20053;-62
2023/06/13 00:07:32;;;;;;;21.00;14.20;;;;;;;20.83;97.26;100553.09;5057499;28;20052;-62
2023/06/13 00:10:00;;;;;;;19.38;14.93;;;;;;;20.83;97.08;100555.88;5069656;28;20067;-63
2023/06/13 00:12:27;;;;;;;21.30;15.27;;;;;;;20.71;97.37;100553.38;5052657;28;20049;-62
2023/06/13 00:14:55;;;;;;;21.48;15.50;;;;;;;20.67;97.67;100552.53;5063883;28;20064;-62
2023/06/13 00:17:25;;;;;;;20.92;15.25;;;;;;;20.86;96.63;100546.72;5071711;28;20044;-62
2023/06/13 00:19:54;;;;;;;18.98;15.90;;;;;;;20.97;94.83;100539.22;5072091;28;20523;-63
2023/06/13 00:22:23;;;;;;;21.30;15.15;;;;;;;21.04;93.20;100548.47;5067576;28;20049;-63
2023/06/13 00:24:50;;;;;;;19.48;15.38;;;;;;;20.90;95.82;100551.13;5068790;28;20515;-63
2023/06/13 00:27:18;;;;;;;20.60;14.40;;;;;;;21.09;94.36;100538.94;5071633;28;20052;-63
2023/06/13 00:29:45;;;;;;;18.85;15.50;;;;;;;21.21;93.67;100536.63;5070617;28;20049;-62
2023/06/13 00:32:12;;;;;;;19.00;14.45;;;;;;;21.17;92.29;100533.00;5072529;28;20067;-62
2023/06/13 00:34:40;;;;;;;25.02;14.95;;;;;;;20.91;94.51;100533.16;5071133;28;20071;-63
2023/06/13 00:37:12;;;;;;;19.10;15.23;;;;;;;20.74;95.82;100544.19;5070995;28;20056;-62
2023/06/13 00:39:42;;;;;;;19.63;16.15;;;;;;;20.47;96.11;100528.75;5071149;28;20056;-63
2023/06/13 00:42:10;;;;;;;18.25;16.10;;;;;;;20.35;98.75;100529.81;5072624;28;20060;-62
2023/06/13 00:44:37;;;;;;;21.85;15.40;;;;;;;20.59;97.41;100534.06;5071075;28;20052;-62
2023/06/13 00:47:05;;;;;;;18.42;15.93;;;;;;;20.57;96.12;100534.47;5070934;28;20483;-63
2023/06/13 00:49:33;;;;;;;17.50;15.60;;;;;;;20.53;97.07;100532.78;5072146;28;20395;-62
2023/06/13 00:52:05;;;;;;;19.52;15.93;;;;;;;20.48;97.35;100528.38;5071270;28;20063;-63
2023/06/13 00:54:36;;;;;;;21.90;16.15;;;;;;;20.49;96.73;100532.75;5040592;28;20072;-63
2023/06/13 00:57:05;;;;;;;20.90;17.83;;;;;;;20.51;95.75;100526.78;5050981;28;20053;-63
2023/06/13 00:59:33;;;;;;;19.75;16.13;;;;;;;20.80;96.04;100528.66;5052941;28;20458;-62
2023/06/13 01:02:02;;;;;;;20.42;15.73;;;;;;;20.68;94.03;100529.75;5058168;28;20522;-62
2023/06/13 01:04:34;;;;;;;22.58;16.95;;;;;;;20.53;96.32;100514.00;5087394;28;20483;-62
2023/06/13 01:07:05;;;;;;;19.35;16.40;;;;;;;20.42;96.11;100513.09;5090769;28;20056;-63
2023/06/13 01:09:33;;;;;;;17.30;15.45;;;;;;;20.36;97.43;100527.81;5072177;28;20079;-63
2023/06/13 01:12:10;;;;;;;21.10;17.70;;;;;;;20.31;97.10;100519.78;5070054;28;20578;-62
2023/06/13 01:14:46;;;;;;;19.85;17.08;;;;;;;20.22;97.96;100522.88;5054221;28;20049;-62
2023/06/13 01:17:18;;;;;;;20.27;16.25;;;;;;;19.99;98.80;100520.19;5072236;28;20056;-62
2023/06/13 01:19:53;;;;;;;18.80;16.80;;;;;;;20.33;97.81;100520.22;5033304;28;20056;-62
2023/06/13 01:22:23;;;;;;;21.65;16.88;;;;;;;20.21;97.51;100509.28;5056767;28;20053;-62
2023/06/13 01:25:13;;;;;;;28.52;17.67;;;;;;;20.06;99.14;100523.09;5054921;28;20049;-62
2023/06/13 01:27:45;;;;;;;26.08;16.88;;;;;;;19.86;99.75;100512.41;5062594;28;20052;-63
2023/06/13 01:30:13;;;;;;;19.73;17.15;;;;;;;20.03;99.21;100517.44;5071421;28;20048;-63
2023/06/13 01:32:46;;;;;;;19.70;16.93;;;;;;;20.14;99.13;100515.56;5062260;28;20049;-66
2023/06/13 01:35:14;;;;;;;24.23;17.15;;;;;;;20.34;96.43;100505.03;5054436;28;20047;-63
2023/06/13 01:37:45;;;;;;;24.45;17.70;;;;;;;20.15;97.29;100503.19;5054261;28;20052;-62
2023/06/13 01:40:16;;;;;;;21.88;16.60;;;;;;;20.14;97.08;100515.56;5056510;28;20061;-62
2023/06/13 01:42:43;;;;;;;20.05;17.35;;;;;;;20.14;97.25;100518.34;5055444;28;20057;-62
2023/06/13 01:45:11;;;;;;;20.48;17.10;;;;;;;19.99;98.55;100517.41;5038088;28;20053;-63
2023/06/13 01:47:46;;;;;;;20.15;17.48;;;;;;;20.07;98.79;100519.09;5054739;28;20049;-63
2023/06/13 01:50:17;;;;;;;23.10;18.30;;;;;;;20.12;97.51;100512.34;5071797;28;20609;-64
2023/06/13 01:52:50;;;;;;;;;;;;;;;20.09;96.67;100510.31;5055923;28;20048;-62
2023/06/13 01:55:24;;;;;;;19.63;16.75;;;;;;;20.16;96.64;100518.81;5068994;28;19920;-63
2023/06/13 01:58:08;;;;;;;20.77;17.67;;;;;;;20.02;96.88;100516.63;5057012;28;20052;-63
2023/06/13 02:00:35;;;;;;;23.88;18.45;;;;;;;20.01;96.49;100512.22;5090955;28;20052;-63
2023/06/13 02:03:03;;;;;;;20.70;18.50;;;;;;;19.87;98.85;100514.84;5095355;28;20047;-62
2023/06/13 02:05:31;;;;;;;23.63;18.27;;;;;;;20.04;96.48;100514.25;5072318;28;20051;-64
2023/06/13 02:08:01;;;;;;;22.38;18.65;;;;;;;20.17;95.53;100505.63;5076392;28;20045;-62
2023/06/13 02:10:28;;;;;;;24.73;19.33;;;;;;;20.15;95.42;100503.19;5061648;28;20444;-63
2023/06/13 02:12:56;;;;;;;24.05;18.48;;;;;;;20.33;94.32;100504.19;5053446;28;20064;-62
2023/06/13 02:15:23;;;;;;;20.95;17.63;;;;;;;20.48;93.12;100493.97;5059052;28;20067;-62
2023/06/13 02:17:50;;;;;;;20.63;18.27;;;;;;;20.41;92.07;100497.50;5054004;28;20424;-63
2023/06/13 02:20:18;;;;;;;23.35;18.52;;;;;;;20.44;92.02;100493.13;5054522;28;20049;-65
2023/06/13 02:22:45;;;;;;;27.52;18.95;;;;;;;20.22;93.67;100496.91;5066832;28;20519;-63
2023/06/13 02:25:13;;;;;;;21.63;17.10;;;;;;;20.08;93.33;100498.31;5068268;28;20052;-64
2023/06/13 02:27:42;;;;;;;25.08;19.45;;;;;;;19.80;94.45;100492.41;5042569;28;20059;-62
2023/06/13 02:30:10;;;;;;;20.35;17.98;;;;;;;19.93;95.90;100498.53;5074990;28;20060;-63
2023/06/13 02:32:39;;;;;;;27.60;19.83;;;;;;;19.45;96.70;100497.53;5066977;28;20049;-62
2023/06/13 02:35:08;;;;;;;24.37;19.67;;;;;;;19.59;96.67;100485.72;5054456;28;20408;-63
2023/06/13 02:37:35;;;;;;;23.08;20.13;;;;;;;19.10;99.73;100494.19;5052973;28;20291;-62
2023/06/13 02:40:05;;;;;;;27.92;20.33;;;;;;;19.25;100.00;100496.00;5053567;28;20049;-62
2023/06/13 02:42:32;;;;;;;28.88;19.75;;;;;;;19.29;99.57;100488.47;5053209;28;20048;-62
2023/06/13 02:44:59;;;;;;;22.17;19.77;;;;;;;19.46;99.22;100490.75;5052854;28;20060;-64
2023/06/13 02:47:27;;;;;;;24.65;19.48;;;;;;;19.34;99.13;100498.53;5066923;28;20767;-63
2023/06/13 02:49:55;;;;;;;25.27;19.75;;;;;;;19.37;99.11;100489.44;5019788;28;20057;-63
2023/06/13 02:52:24;;;;;;;21.92;19.30;;;;;;;19.58;97.48;100484.91;5071539;28;20055;-63
2023/06/13 02:54:51;;;;;;;22.83;19.38;;;;;;;19.67;95.60;100479.84;5074000;28;20049;-62
2023/06/13 02:57:18;;;;;;;30.70;19.40;;;;;;;19.68;96.16;100473.06;5072119;28;20045;-62
2023/06/13 02:59:47;;;;;;;27.50;19.65;;;;;;;20.03;94.61;100484.66;5080667;28;20059;-62
2023/06/13 03:02:16;;;;;;;22.10;18.90;;;;;;;19.96;94.06;100478.22;5072465;28;20666;-62
2023/06/13 03:04:44;;;;;;;21.92;18.80;;;;;;;19.92;93.53;100488.53;5061579;28;20045;-63
2023/06/13 03:07:16;;;;;;;22.08;19.05;;;;;;;19.67;95.70;100491.03;5070807;28;20044;-62
2023/06/13 03:09:44;;;;;;;22.52;19.77;;;;;;;19.54;96.54;100491.66;5056135;28;20052;-63
2023/06/13 03:12:12;;;;;;;22.65;19.58;;;;;;;19.77;95.89;100481.97;5071828;28;20060;-63
2023/06/13 03:14:45;;;;;;;22.65;19.27;;;;;;;19.68;96.13;100484.25;5062915;28;20429;-63
2023/06/13 03:17:12;;;;;;;23.48;19.58;;;;;;;19.66;95.75;100489.44;5051702;28;20099;-62
2023/06/13 03:19:40;;;;;;;25.15;20.15;;;;;;;19.30;97.32;100494.88;5025693;28;20044;-62
2023/06/13 03:22:07;;;;;;;27.95;21.38;;;;;;;19.17;99.25;100490.69;5053724;28;20061;-63
2023/06/13 03:24:35;;;;;;;25.98;19.85;;;;;;;19.37;98.77;100484.63;5035208;28;20045;-63
2023/06/13 03:27:03;;;;;;;26.30;20.65;;;;;;;19.63;96.74;100483.81;5053085;28;20045;-63
2023/06/13 03:29:31;;;;;;;23.58;19.98;;;;;;;19.40;96.93;100478.31;5049799;28;20056;-64
2023/06/13 03:31:58;;;;;;;28.02;20.92;;;;;;;19.26;98.52;100488.44;5063546;28;20036;-63
2023/06/13 03:34:28;;;;;;;27.77;20.35;;;;;;;19.31;97.45;100488.94;5052746;28;20709;-62
2023/06/13 03:36:55;;;;;;;24.50;21.55;;;;;;;19.07;99.57;100484.56;5050446;28;20060;-63
2023/06/13 03:39:24;;;;;;;24.88;21.40;;;;;;;18.98;99.82;100488.81;5034105;28;20064;-64
2023/06/13 03:41:52;;;;;;;28.90;21.10;;;;;;;18.92;100.00;100481.94;5054032;28;20048;-62
2023/06/13 03:44:22;;;;;;;25.48;20.52;;;;;;;18.87;100.00;100496.22;5055259;28;20055;-62
2023/06/13 03:46:50;;;;;;;25.70;21.63;;;;;;;19.02;100.00;100487.69;5055467;28;20826;-63
2023/06/13 03:49:21;;;;;;;27.92;22.40;;;;;;;19.08;99.62;100482.59;5052117;28;20669;-64
2023/06/13 03:51:49;;;;;;;23.33;20.67;;;;;;;19.20;98.53;100482.38;5049038;28;20048;-63
2023/06/13 03:54:18;;;;;;;23.35;19.27;;;;;;;19.30;98.01;100487.31;5027492;28;20044;-64
2023/06/13 03:56:45;;;;;;;28.88;21.25;;;;;;;19.37;98.06;100495.81;5051674;28;20056;-62
2023/06/13 03:59:13;;;;;;;23.42;20.35;;;;;;;19.37;96.16;100493.00;5048377;28;20040;-62
2023/06/13 04:01:43;;;;;;;26.02;20.10;;;;;;;19.58;96.18;100489.72;5092041;28;20059;-62
2023/06/13 04:04:10;;;;;;;;;;;;;;;19.56;94.99;100497.69;5087127;28;20052;-63
2023/06/13 04:06:37;;;;;;;23.77;20.33;;;;;;;19.46;95.62;100499.13;5091817;28;19920;-63
2023/06/13 04:09:06;;;;;;;24.08;20.52;;;;;;;19.47;95.49;100484.00;5070566;28;20454;-62
2023/06/13 04:11:33;;;;;;;26.30;19.95;;;;;;;19.62;94.72;100484.97;5073019;28;20055;-63
2023/06/13 04:14:01;;;;;;;24.63;19.48;;;;;;;19.71;93.84;100489.09;5054670;28;20064;-62
2023/06/13 04:16:29;;;;;;;25.70;20.35;;;;;;;19.69;93.54;100496.25;5054892;28;20047;-63
2023/06/13 04:18:57;;;;;;;25.85;19.05;;;;;;;19.85;93.87;100494.88;5068746;28;20075;-63
2023/06/13 04:21:25;;;;;;;24.92;19.55;;;;;;;19.46;94.77;100501.09;5051816;28;20053;-62
2023/06/13 04:23:53;;;;;;;25.48;20.02;;;;;;;19.55;94.75;100505.25;5051497;28;20055;-63
2023/06/13 04:26:23;;;;;;;26.23;19.55;;;;;;;19.34;94.36;100504.94;5034782;28;20057;-62
2023/06/13 04:28:55;;;;;;;26.33;19.77;;;;;;;19.76;93.82;100502.72;5051145;28;20057;-64
2023/06/13 04:31:23;;;;;;;26.42;19.25;;;;;;;19.92;91.80;100505.31;5039240;28;20044;-63
2023/06/13 04:33:55;;;;;;;26.48;19.63;;;;;;;19.61;92.90;100505.72;5071374;28;20083;-63
2023/06/13 04:36:28;;;;;;;22.00;19.58;;;;;;;19.83;92.65;100505.63;5071066;28;20041;-64
2023/06/13 04:38:55;;;;;;;26.92;19.65;;;;;;;19.88;92.07;100501.66;5061769;28;20053;-63
2023/06/13 04:41:23;;;;;;;23.67;19.95;;;;;;;19.69;91.99;100501.81;5051542;28;20061;-63
2023/06/13 04:43:50;;;;;;;28.75;20.25;;;;;;;19.62;92.37;100507.31;5052760;28;20499;-64
2023/06/13 04:46:18;;;;;;;23.15;19.65;;;;;;;19.66;92.52;100509.00;5064967;28;20037;-64
2023/06/13 04:48:46;;;;;;;23.98;20.20;;;;;;;19.62;92.97;100510.94;5071333;28;20044;-64
2023/06/13 04:51:15;;;;;;;28.75;21.08;;;;;;;19.44;93.66;100511.88;5074195;28;20044;-63
2023/06/13 04:53:43;;;;;;;25.77;19.77;;;;;;;19.56;93.15;100506.84;5072889;28;20072;-63
2023/06/13 04:56:10;;;;;;;26.02;21.02;;;;;;;19.56;93.52;100503.25;5066010;28;20373;-64
2023/06/13 04:58:37;;;;;;;24.58;19.55;;;;;;;19.51;93.16;100509.97;5059914;28;20067;-64
2023/06/13 05:01:07;;;;;;;25.80;20.35;;;;;;;19.44;93.03;100511.88;5096866;28;20082;-63
2023/06/13 05:03:35;;;;;;;25.23;19.52;;;;;;;19.57;92.61;100511.25;5067104;28;20037;-64
2023/06/13 05:06:02;;;;;;;27.10;20.65;;;;;;;19.86;91.55;100507.66;5075265;28;20044;-65
2023/06/13 05:08:30;;;;;;;29.88;20.88;;;;;;;19.77;91.00;100515.50;5075453;28;20057;-64
2023/06/13 05:10:58;;;;;;;29.83;20.50;;;;;;;19.80;90.87;100511.16;5075115;28;20052;-63
2023/06/13 05:13:26;;;;;;;25.38;20.20;;;;;;;19.89;89.87;100514.47;5074365;28;20756;-63
2023/06/13 05:15:55;;;;;;;25.88;20.60;;;;;;;19.35;93.67;100517.75;5075921;28;20045;-61
2023/06/13 05:18:29;;;;;;;30.10;20.80;;;;;;;19.26;94.11;100513.56;5057959;28;20053;-63
2023/06/13 05:20:58;;;;;;;28.52;21.05;;;;;;;19.24;94.56;100507.56;5054990;28;20413;-63
2023/06/13 05:23:26;;;;;;;25.85;20.92;;;;;;;19.32;94.55;100517.69;5056105;28;20059;-63
2023/06/13 05:25:53;;;;;;;24.80;19.80;;;;;;;19.52;92.92;100519.16;5054553;28;20069;-62
2023/06/13 05:28:21;;;;;;;23.88;20.27;;;;;;;19.55;92.57;100518.41;5054217;28;20057;-63
2023/06/13 05:30:51;;;;;;;23.50;20.17;;;;;;;19.85;90.85;100511.63;5054210;28;20060;-64
2023/06/13 05:33:18;;;;;;;25.60;19.70;;;;;;;19.90;90.68;100511.28;5055668;28;20059;-66
2023/06/13 05:35:46;;;;;;;28.70;20.25;;;;;;;19.74;89.87;100513.47;5056421;28;20052;-66
2023/06/13 05:38:24;;;;;;;27.27;21.13;;;;;;;19.79;90.47;100498.34;5054162;28;20057;-66
2023/06/13 05:40:52;;;;;;;24.27;21.00;;;;;;;19.71;90.41;100503.06;5055848;28;20056;-66
2023/06/13 05:43:20;;;;;;;23.48;20.30;;;;;;;19.80;90.80;100508.38;5055341;28;20056;-65
2023/06/13 05:45:48;;;;;;;25.67;20.90;;;;;;;19.67;90.99;100510.59;5073406;28;20267;-65
2023/06/13 05:48:15;;;;;;;26.40;20.33;;;;;;;20.01;90.75;100514.22;5075394;28;20056;-65
2023/06/13 05:50:43;;;;;;;24.73;20.15;;;;;;;19.94;89.54;100520.53;5075656;28;20272;-67
2023/06/13 05:53:10;;;;;;;25.33;20.80;;;;;;;20.13;89.02;100522.34;5075503;28;20052;-65
2023/06/13 05:55:38;;;;;;;24.67;19.15;;;;;;;20.17;89.38;100519.63;5076057;28;20064;-66
2023/06/13 05:58:05;;;;;;;23.75;19.83;;;;;;;20.45;87.75;100520.72;5073778;28;20057;-66
2023/06/13 06:00:32;;;;;;;34.60;19.67;;;;;;;20.68;86.10;100512.94;5071331;28;20057;-65
2023/06/13 06:03:05;;;;;;;32.70;19.90;;;;;;;20.30;86.09;100515.34;5075026;28;20515;-65
2023/06/13 06:05:32;;;;;;;26.23;19.58;;;;;;;20.26;87.68;100511.75;5073628;28;20036;-65
2023/06/13 06:08:00;;;;;;;26.48;20.00;;;;;;;20.17;87.23;100518.44;5074478;28;20049;-65
2023/06/13 06:10:28;;;;;;;26.88;19.42;;;;;;;20.30;87.41;100515.34;5073798;28;20067;-64
2023/06/13 06:12:55;;;;;;;29.13;20.35;;;;;;;20.44;86.65;100518.31;5075068;28;20045;-65
2023/06/13 06:15:22;;;;;;;30.63;20.65;;;;;;;20.06;87.32;100506.31;5075091;28;20052;-66
2023/06/13 06:17:52;;;;;;;24.02;20.20;;;;;;;19.92;88.31;100497.75;5087257;28;20052;-66
2023/06/13 06:20:20;;;;;;;26.48;20.25;;;;;;;20.05;88.38;100501.88;5069827;28;20049;-65
2023/06/13 06:22:47;;;;;;;24.88;19.92;;;;;;;20.44;87.35;100498.72;5062258;28;20057;-65
2023/06/13 06:25:19;;;;;;;28.38;18.60;;;;;;;20.71;86.36;100495.38;5056764;28;20044;-64
2023/06/13 06:27:50;;;;;;;35.70;18.98;;;;;;;21.06;83.71;100494.91;5059101;28;20060;-64
2023/06/13 06:30:17;;;;;;;26.38;19.38;;;;;;;21.62;81.41;100495.22;5072790;28;20056;-63
2023/06/13 06:32:45;;;;;;;26.83;18.98;;;;;;;21.51;79.26;100493.59;5053907;28;20642;-64
2023/06/13 06:35:14;;;;;;;25.67;19.33;;;;;;;21.60;78.87;100496.84;5059208;28;20069;-63
2023/06/13 06:37:43;;;;;;;27.92;19.50;;;;;;;21.65;76.64;100499.25;5054372;28;20071;-64
2023/06/13 06:40:10;;;;;;;24.35;18.83;;;;;;;21.28;77.70;100505.06;5054387;28;20060;-63
2023/06/13 06:42:38;;;;;;;28.90;18.58;;;;;;;21.75;76.45;100495.69;5059253;28;20064;-63
2023/06/13 06:45:12;;;;;;;28.15;17.52;;;;;;;21.87;74.42;100500.97;5064383;28;20057;-63
2023/06/13 06:47:40;;;;;;;26.05;17.88;;;;;;;22.30;71.67;100494.28;5063749;28;20049;-64
2023/06/13 06:50:08;;;;;;;28.95;18.35;;;;;;;22.13;71.26;100493.06;5055490;28;20041;-63
2023/06/13 06:52:35;;;;;;;21.70;17.20;;;;;;;21.73;71.52;100481.25;5075837;28;20072;-64
2023/06/13 06:55:03;;;;;;;23.02;16.38;;;;;;;21.51;71.47;100487.97;5073060;28;20053;-65
2023/06/13 06:57:30;;;;;;;32.78;17.10;;;;;;;21.58;71.30;100488.81;5076985;28;20385;-64
2023/06/13 06:59:57;;;;;;;19.77;13.25;;;;;;;21.83;66.80;100478.53;5062391;28;20049;-65
2023/06/13 07:02:25;;;;;;;16.48;11.73;;;;;;;21.94;63.71;100479.38;5060382;28;20491;-65
2023/06/13 07:04:52;;;;;;;22.33;12.57;;;;;;;21.89;63.31;100484.56;5063015;28;20052;-65
2023/06/13 07:07:19;;;;;;;21.35;12.73;;;;;;;21.86;62.99;100474.94;5056886;28;20037;-65
2023/06/13 07:09:47;;;;;;;20.67;11.75;;;;;;;21.99;63.39;100478.19;5061388;28;20048;-65
2023/06/13 07:12:14;;;;;;;16.23;11.90;;;;;;;22.14;61.75;100477.03;5062538;28;20052;-65
2023/06/13 07:14:42;;;;;;;20.30;11.45;;;;;;;22.19;59.93;100483.03;5051323;28;20048;-65
2023/06/13 07:17:09;;;;;;;19.98;11.23;;;;;;;22.34;58.64;100484.69;5062013;28;20048;-65
2023/06/13 07:19:36;;;;;;;19.83;10.10;;;;;;;22.66;57.53;100486.78;5055066;28;20063;-65
2023/06/13 07:22:04;;;;;;;17.75;10.18;;;;;;;22.77;57.15;100482.75;5049826;28;20049;-64
2023/06/13 07:24:32;;;;;;;17.05;10.15;;;;;;;23.12;56.72;100479.91;5032866;28;20052;-64
2023/06/13 07:27:00;;;;;;;14.48;10.05;;;;;;;23.09;56.13;100480.75;5065342;28;20052;-65
2023/06/13 07:29:27;;;;;;;15.50;10.25;;;;;;;23.24;55.09;100496.34;5055813;28;20056;-64
2023/06/13 07:31:56;;;;;;;19.50;10.23;;;;;;;23.25;54.75;100483.13;5060140;28;20388;-63
2023/06/13 07:34:24;;;;;;;17.27;10.60;;;;;;;23.51;53.12;100493.94;5059390;28;20522;-64
2023/06/13 07:37:06;;;;;;;17.63;9.02;;;;;;;24.05;52.10;100484.91;5062952;28;20055;-64
2023/06/13 07:39:47;;;;;;;16.48;9.18;;;;;;;24.37;50.33;100482.69;5066927;28;20048;-65
2023/06/13 07:42:14;;;;;;;30.52;10.13;;;;;;;24.37;50.06;100470.66;5065327;28;20053;-65
2023/06/13 07:44:55;;;;;;;20.73;10.48;;;;;;;24.17;50.90;100487.25;5069947;28;20055;-65
2023/06/13 07:47:36;;;;;;;17.75;9.43;;;;;;;24.40;49.67;100481.06;5057488;28;20045;-65
2023/06/13 07:50:21;;;;;;;16.05;8.18;;;;;;;24.84;48.35;100483.19;5046038;28;20057;-64
2023/06/13 07:52:49;;;;;;;17.63;9.45;;;;;;;24.60;48.64;100481.34;5062148;28;20068;-64
2023/06/13 07:55:30;;;;;;;16.42;9.10;;;;;;;24.79;48.76;100483.63;5054608;28;20052;-64
2023/06/13 07:57:57;;;;;;;18.20;8.85;;;;;;;25.12;47.49;100474.47;5054711;28;20048;-64
2023/06/13 08:00:27;;;;;;;12.55;8.68;;;;;;;25.22;46.65;100482.84;5063030;28;20589;-65
2023/06/13 08:03:08;;;;;;;23.83;8.93;;;;;;;25.29;47.20;100477.13;5050808;28;20053;-64
2023/06/13 08:05:49;;;;;;;21.77;9.23;;;;;;;25.28;46.41;100481.13;5052362;28;20064;-64
2023/06/13 08:08:30;;;;;;;10.27;8.57;;;;;;;25.02;47.15;100476.16;5059959;28;20079;-66
2023/06/13 08:11:11;;;;;;;16.17;8.30;;;;;;;25.38;46.93;100471.81;5065091;28;20041;-64
2023/06/13 08:13:39;;;;;;;15.98;8.52;;;;;;;25.67;46.68;100475.09;5061109;28;20044;-65
2023/06/13 08:16:06;;;;;;;20.90;9.25;;;;;;;24.85;47.58;100476.31;5059183;28;20417;-63
2023/06/13 08:18:47;;;;;;;13.45;8.27;;;;;;;24.94;47.25;100474.63;5054355;28;20057;-65
2023/06/13 08:21:18;;;;;;;21.85;9.00;;;;;;;24.86;47.58;100473.09;5057603;28;20056;-65
2023/06/13 08:23:45;;;;;;;14.90;8.07;;;;;;;25.29;46.68;100473.50;5060597;28;20052;-66
2023/06/13 08:26:18;;;;;;;11.10;7.95;;;;;;;25.22;46.23;100465.09;5063053;28;20048;-64
2023/06/13 08:28:47;;;;;;;17.83;8.27;;;;;;;25.42;45.91;100463.28;5055093;28;20053;-64
2023/06/13 08:31:23;;;;;;;15.60;8.75;;;;;;;25.17;46.74;100474.84;5065953;28;20064;-64
2023/06/13 08:34:09;;;;;;;17.95;8.18;;;;;;;25.24;46.31;100474.75;5048987;28;20049;-67
2023/06/13 08:36:42;;;;;;;18.77;8.65;;;;;;;24.83;47.39;100468.28;5060436;28;20049;-65
2023/06/13 08:39:10;;;;;;;23.95;12.27;;;;;;;24.69;47.68;100468.41;5041656;28;20056;-69
2023/06/13 08:41:51;;;;;;;19.25;9.35;;;;;;;24.83;46.94;100462.66;5053449;28;20040;-69
2023/06/13 08:44:25;;;;;;;18.35;8.38;;;;;;;24.92;45.50;100459.34;5050979;28;20049;-67
2023/06/13 08:46:59;;;;;;;15.40;7.75;;;;;;;24.93;44.43;100458.94;5054540;28;20076;-75
2023/06/13 08:49:27;;;;;;;18.13;7.43;;;;;;;25.20;44.43;100462.72;5057905;28;20558;-66
2023/06/13 08:51:59;;;;;;;17.13;8.10;;;;;;;24.89;44.47;100452.53;5057336;28;20047;-68
2023/06/13 08:54:28;;;;;;;14.25;7.30;;;;;;;24.94;43.70;100452.09;5049668;28;20063;-68
2023/06/13 08:57:03;;;;;;;14.40;7.82;;;;;;;24.94;43.14;100446.47;5052328;28;20045;-68
2023/06/13 08:59:36;;;;;;;18.13;7.95;;;;;;;25.15;42.93;100442.63;5052899;28;20389;-65
2023/06/13 09:02:07;;;;;;;16.30;7.07;;;;;;;25.26;40.88;100446.13;5055031;28;20614;-67
2023/06/13 09:04:35;;;;;;;13.30;6.78;;;;;;;25.32;40.63;100447.25;5052927;28;20053;-67
2023/06/13 09:07:04;;;;;;;14.93;7.35;;;;;;;25.41;41.13;100447.59;5045802;28;20260;-67
2023/06/13 09:09:32;;;;;;;18.75;7.20;;;;;;;25.52;39.48;100456.75;5032377;28;20200;-66
2023/06/13 09:12:02;;;;;;;14.57;7.25;;;;;;;25.51;39.22;100455.13;5050163;28;20044;-67
2023/06/13 09:14:30;;;;;;;18.73;7.32;;;;;;;25.45;38.94;100457.63;5054883;28;20059;-69
2023/06/13 09:17:01;;;;;;;12.75;6.72;;;;;;;25.40;39.01;100454.47;5053747;28;20068;-68
2023/06/13 09:19:37;;;;;;;13.77;7.47;;;;;;;25.33;39.30;100460.94;5039640;28;20044;-66
2023/06/13 09:22:18;;;;;;;13.38;7.10;;;;;;;25.44;39.95;100449.56;5051260;28;20064;-68
2023/06/13 09:24:52;;;;;;;13.75;7.80;;;;;;;25.51;38.77;100455.94;5053994;28;20092;-68
2023/06/13 09:27:25;;;;;;;16.05;7.13;;;;;;;25.59;39.45;100454.63;5056055;28;20060;-68
2023/06/13 09:29:53;;;;;;;14.52;6.68;;;;;;;25.77;39.43;100451.59;5051473;28;20437;-67
2023/06/13 09:32:22;;;;;;;11.05;6.88;;;;;;;25.85;37.64;100455.13;5056586;28;20056;-70
2023/06/13 09:34:53;;;;;;;14.63;7.70;;;;;;;25.79;39.15;100453.97;5053937;28;20051;-68
2023/06/13 09:37:20;;;;;;;11.82;6.80;;;;;;;25.63;39.05;100448.16;5054989;28;20067;-69
2023/06/13 09:39:56;;;;;;;16.98;7.07;;;;;;;25.78;38.12;100455.22;5050156;28;20041;-67
2023/06/13 09:42:48;;;;;;;14.73;6.90;;;;;;;25.67;38.69;100441.25;5058915;28;20522;-68
2023/06/13 09:45:38;;;;;;;;;;;;;;;25.71;38.12;100455.31;5060167;28;20052;-69
2023/06/13 09:48:10;;;;;;;10.30;7.07;;;;;;;25.80;38.95;100450.75;5058803;28;19924;-68
2023/06/13 09:50:40;;;;;;;13.73;8.60;;;;;;;25.70;38.15;100448.84;5057745;28;20059;-68
2023/06/13 09:53:10;;;;;;;16.70;7.38;;;;;;;25.89;38.24;100450.25;5058365;28;20146;-69
2023/06/13 09:55:40;;;;;;;10.73;6.90;;;;;;;25.98;37.38;100444.88;5053456;28;20048;-69
2023/06/13 09:58:12;;;;;;;19.90;6.78;;;;;;;26.08;36.78;100439.09;5055257;28;20063;-67
2023/06/13 10:00:59;;;;;;;13.93;6.95;;;;;;;26.12;36.30;100439.84;5056406;28;20045;-69
2023/06/13 10:03:30;;;;;;;9.80;6.07;;;;;;;26.11;34.46;100455.22;5041315;28;20428;-67
2023/06/13 10:05:58;;;;;;;12.00;6.47;;;;;;;26.06;34.92;100444.41;5059725;28;20048;-66
2023/06/13 10:08:26;;;;;;;9.50;6.53;;;;;;;26.19;34.98;100448.22;5058356;28;20377;-66
2023/06/13 10:10:54;;;;;;;11.35;6.50;;;;;;;26.38;35.38;100452.38;5055252;28;20055;-65
2023/06/13 10:13:26;;;;;;;9.25;5.95;;;;;;;26.40;34.98;100449.91;5054416;28;20061;-67
2023/06/13 10:15:58;;;;;;;10.52;6.10;;;;;;;26.37;34.45;100451.59;5053842;28;20045;-69
2023/06/13 10:18:30;;;;;;;9.68;6.32;;;;;;;26.22;35.05;100444.53;5061361;28;20044;-66
2023/06/13 10:20:58;;;;;;;16.25;7.88;;;;;;;26.27;35.79;100461.03;5056276;28;20049;-68
2023/06/13 10:23:30;;;;;;;12.75;7.03;;;;;;;26.33;36.41;100455.69;5053093;28;20485;-67
2023/06/13 10:26:00;;;;;;;12.20;6.43;;;;;;;26.25;35.85;100452.19;5056115;28;20044;-66
2023/06/13 10:28:40;;;;;;;12.77;6.22;;;;;;;26.33;35.70;100450.03;5056226;28;20041;-65
2023/06/13 10:31:26;;;;;;;13.25;6.68;;;;;;;26.31;35.05;100456.09;5057466;28;20045;-68
2023/06/13 10:34:03;;;;;;;8.80;6.55;;;;;;;26.29;35.84;100455.72;5058244;28;20049;-67
2023/06/13 10:36:43;;;;;;;10.10;7.10;;;;;;;26.31;36.23;100452.50;5054373;28;20568;-67
2023/06/13 10:39:45;;;;;;;11.80;7.13;;;;;;;26.54;35.82;100444.03;5059556;28;20056;-68
2023/06/13 10:42:19;;;;;;;15.00;6.85;;;;;;;26.53;35.91;100456.59;5059502;28;20047;-68
2023/06/13 10:44:50;;;;;;;13.32;7.05;;;;;;;26.56;36.69;100448.06;5054078;28;20049;-68
2023/06/13 10:47:18;;;;;;;12.73;8.88;;;;;;;26.56;35.11;100450.06;5058907;28;20052;-66
2023/06/13 10:49:51;;;;;;;11.15;7.07;;;;;;;26.46;35.24;100453.88;5055718;28;20056;-67
2023/06/13 10:52:21;;;;;;;10.75;8.38;;;;;;;26.58;35.05;100439.94;5062920;28;20570;-68
2023/06/13 10:54:53;;;;;;;14.18;7.50;;;;;;;26.76;34.67;100438.88;5052216;28;20527;-69
2023/06/13 10:57:21;;;;;;;10.60;6.53;;;;;;;26.82;34.90;100454.09;5059002;28;20057;-68
2023/06/13 10:59:49;;;;;;;16.00;12.43;;;;;;;26.74;35.33;100450.63;5051121;28;20476;-67
2023/06/13 11:02:17;;;;;;;17.73;7.15;;;;;;;26.82;34.59;100437.16;5056867;28;20052;-68
2023/06/13 11:04:52;;;;;;;12.60;6.55;;;;;;;26.76;34.46;100439.69;5053257;28;20496;-68
2023/06/13 11:07:22;;;;;;;13.63;7.68;;;;;;;26.81;35.00;100435.56;5057381;28;20043;-69
2023/06/13 11:10:12;;;;;;;11.95;7.03;;;;;;;26.81;36.08;100435.56;5058464;28;20049;-69
2023/06/13 11:12:43;;;;;;;15.65;6.78;;;;;;;26.89;35.34;100431.38;5053163;28;20044;-68
2023/06/13 11:15:24;;;;;;;11.35;6.35;;;;;;;26.96;34.17;100426.41;5053557;28;20049;-67
2023/06/13 11:18:15;;;;;;;12.25;6.93;;;;;;;26.84;35.70;100424.19;5053379;28;20041;-68
2023/06/13 11:20:49;;;;;;;10.20;7.22;;;;;;;26.94;34.69;100416.75;5053162;28;20068;-67
2023/06/13 11:23:38;;;;;;;11.00;6.75;;;;;;;26.77;34.86;100423.50;5050606;28;20076;-70
2023/06/13 11:26:05;;;;;;;10.45;6.32;;;;;;;26.90;35.02;100421.69;5056339;28;20049;-69